PWSweather.com
Personal Weather Stations
Station Observations
IPORTUGA89
BarosaPT

BarosaPT

Lat: 39.754028, Lon: -8.843

Elevation: 98

Station Type: Davis Vp2

High Low Average
Temperature 59.5°F15.3°C 48.4°F9.1°C 54.3°F12.4°C
Dew Point 54.7°F12.6°C 46.8°F8.2°C 51.5°F10.8°C
Winds 11.0 mph 17.7 kmh Calm Calm 2.0 mph S3.2 kmh S
Wind Gusts 21.9 mph35.2 kmh -- 5.0 mph8.0 kmh
Humidity 94% 79% 90%
Pressure 30.28 in1025.4 mb 30.19 in1022.4 mb -
Precipitation 0.05 in1.3 mm - -
Hour Temp Dew Point Humidity Winds Wind Gusts Pressure Precip Precip Rate Daily Precip Total
12:07 AM 48.4°F9.1°C 46.8°F8.2°C 94% Calm Calm -- 30.23 in1023.7 mb 0.00 in0.0 mm 0.00 in0.0 mm 0.00 in0.0 mm
12:17 AM 48.7°F9.3°C 47.1°F8.4°C 94% Calm Calm -- 30.23 in1023.7 mb 0.00 in0.0 mm 0.00 in0.0 mm 0.00 in0.0 mm
12:27 AM 48.9°F9.4°C 47.3°F8.5°C 94% Calm Calm -- 30.23 in1023.7 mb 0.00 in0.0 mm 0.00 in0.0 mm 0.00 in0.0 mm
12:37 AM 49.1°F9.5°C 47.5°F8.6°C 94% Calm Calm -- 30.23 in1023.7 mb 0.00 in0.0 mm 0.00 in0.0 mm 0.00 in0.0 mm
12:47 AM 49.3°F9.6°C 47.7°F8.7°C 94% Calm Calm -- 30.23 in1023.7 mb 0.00 in0.0 mm 0.00 in0.0 mm 0.00 in0.0 mm
12:58 AM 49.3°F9.6°C 47.7°F8.7°C 94% Calm Calm -- 30.23 in1023.7 mb 0.00 in0.0 mm 0.00 in0.0 mm 0.00 in0.0 mm
01:08 AM 49.5°F9.7°C 47.8°F8.8°C 94% Calm Calm -- 30.23 in1023.7 mb 0.00 in0.0 mm 0.00 in0.0 mm 0.00 in0.0 mm
01:18 AM 49.6°F9.8°C 48.0°F8.9°C 94% Calm Calm -- 30.22 in1023.4 mb 0.00 in0.0 mm 0.00 in0.0 mm 0.00 in0.0 mm
01:28 AM 50.2°F10.1°C 48.6°F9.2°C 94% Calm Calm -- 30.22 in1023.4 mb 0.00 in0.0 mm 0.00 in0.0 mm 0.00 in0.0 mm
01:38 AM 50.0°F10.0°C 48.4°F9.1°C 94% Calm Calm -- 30.22 in1023.4 mb 0.00 in0.0 mm 0.00 in0.0 mm 0.00 in0.0 mm
01:48 AM 50.2°F10.1°C 48.6°F9.2°C 94% Calm Calm -- 30.22 in1023.4 mb 0.00 in0.0 mm 0.00 in0.0 mm 0.00 in0.0 mm
01:58 AM 50.0°F10.0°C 48.4°F9.1°C 94% Calm Calm -- 30.22 in1023.4 mb 0.00 in0.0 mm 0.00 in0.0 mm 0.00 in0.0 mm
02:09 AM 49.8°F9.9°C 48.2°F9.0°C 94% Calm Calm -- 30.22 in1023.4 mb 0.00 in0.0 mm 0.00 in0.0 mm 0.00 in0.0 mm
02:19 AM 50.2°F10.1°C 48.6°F9.2°C 94% Calm Calm -- 30.21 in1023.0 mb 0.00 in0.0 mm 0.00 in0.0 mm 0.00 in0.0 mm
02:29 AM 50.0°F10.0°C 48.4°F9.1°C 94% Calm Calm -- 30.21 in1023.0 mb 0.00 in0.0 mm 0.00 in0.0 mm 0.00 in0.0 mm
02:39 AM 49.6°F9.8°C 48.0°F8.9°C 94% Calm Calm -- 30.21 in1023.0 mb 0.00 in0.0 mm 0.00 in0.0 mm 0.00 in0.0 mm
02:49 AM 50.2°F10.1°C 48.6°F9.2°C 94% Calm Calm -- 30.21 in1023.0 mb 0.00 in0.0 mm 0.00 in0.0 mm 0.00 in0.0 mm
02:59 AM 50.2°F10.1°C 48.6°F9.2°C 94% Calm Calm -- 30.21 in1023.0 mb 0.00 in0.0 mm 0.00 in0.0 mm 0.00 in0.0 mm
03:10 AM 49.8°F9.9°C 48.2°F9.0°C 94% Calm Calm -- 30.21 in1023.0 mb 0.00 in0.0 mm 0.00 in0.0 mm 0.00 in0.0 mm
03:20 AM 49.5°F9.7°C 47.8°F8.8°C 94% Calm Calm -- 30.20 in1022.7 mb 0.00 in0.0 mm 0.00 in0.0 mm 0.00 in0.0 mm
03:30 AM 49.3°F9.6°C 47.7°F8.7°C 94% Calm Calm -- 30.20 in1022.7 mb 0.00 in0.0 mm 0.00 in0.0 mm 0.00 in0.0 mm
03:40 AM 49.1°F9.5°C 47.5°F8.6°C 94% Calm Calm -- 30.19 in1022.4 mb 0.00 in0.0 mm 0.00 in0.0 mm 0.00 in0.0 mm
03:50 AM 48.6°F9.2°C 46.9°F8.3°C 94% Calm Calm -- 30.19 in1022.4 mb 0.00 in0.0 mm 0.00 in0.0 mm 0.00 in0.0 mm
04:00 AM 48.7°F9.3°C 47.1°F8.4°C 94% Calm Calm -- 30.19 in1022.4 mb 0.00 in0.0 mm 0.00 in0.0 mm 0.00 in0.0 mm
04:10 AM 48.9°F9.4°C 47.3°F8.5°C 94% Calm Calm -- 30.19 in1022.4 mb 0.00 in0.0 mm 0.00 in0.0 mm 0.00 in0.0 mm
04:20 AM 48.7°F9.3°C 47.1°F8.4°C 94% Calm Calm -- 30.19 in1022.4 mb 0.00 in0.0 mm 0.00 in0.0 mm 0.00 in0.0 mm
04:30 AM 49.1°F9.5°C 47.5°F8.6°C 94% Calm Calm -- 30.19 in1022.4 mb 0.00 in0.0 mm 0.00 in0.0 mm 0.00 in0.0 mm
04:41 AM 49.5°F9.7°C 47.8°F8.8°C 94% Calm Calm -- 30.19 in1022.4 mb 0.00 in0.0 mm 0.00 in0.0 mm 0.00 in0.0 mm
04:51 AM 49.6°F9.8°C 48.0°F8.9°C 94% Calm Calm -- 30.19 in1022.4 mb 0.00 in0.0 mm 0.00 in0.0 mm 0.00 in0.0 mm
05:01 AM 50.2°F10.1°C 48.6°F9.2°C 94% Calm Calm -- 30.19 in1022.4 mb 0.00 in0.0 mm 0.00 in0.0 mm 0.00 in0.0 mm
05:11 AM 50.4°F10.2°C 48.7°F9.3°C 94% Calm Calm -- 30.19 in1022.4 mb 0.00 in0.0 mm 0.00 in0.0 mm 0.00 in0.0 mm
05:21 AM 50.5°F10.3°C 48.9°F9.4°C 94% Calm Calm -- 30.20 in1022.7 mb 0.00 in0.0 mm 0.00 in0.0 mm 0.00 in0.0 mm
05:31 AM 50.7°F10.4°C 49.1°F9.5°C 94% Calm Calm -- 30.20 in1022.7 mb 0.00 in0.0 mm 0.00 in0.0 mm 0.00 in0.0 mm
05:41 AM 50.7°F10.4°C 49.1°F9.5°C 94% Calm Calm -- 30.20 in1022.7 mb 0.00 in0.0 mm 0.00 in0.0 mm 0.00 in0.0 mm
05:51 AM 50.7°F10.4°C 49.1°F9.5°C 94% Calm Calm -- 30.20 in1022.7 mb 0.00 in0.0 mm 0.00 in0.0 mm 0.00 in0.0 mm
06:01 AM 51.1°F10.6°C 49.5°F9.7°C 94% Calm Calm -- 30.20 in1022.7 mb 0.00 in0.0 mm 0.00 in0.0 mm 0.00 in0.0 mm
06:12 AM 51.3°F10.7°C 49.6°F9.8°C 94% Calm Calm 4.9 mph7.9 kmh 30.20 in1022.7 mb 0.00 in0.0 mm 0.00 in0.0 mm 0.00 in0.0 mm
06:22 AM 51.3°F10.7°C 49.6°F9.8°C 94% Calm Calm -- 30.20 in1022.7 mb 0.00 in0.0 mm 0.00 in0.0 mm 0.00 in0.0 mm
06:32 AM 51.3°F10.7°C 49.6°F9.8°C 94% Calm Calm -- 30.20 in1022.7 mb 0.00 in0.0 mm 0.00 in0.0 mm 0.00 in0.0 mm
06:42 AM 51.3°F10.7°C 49.6°F9.8°C 94% Calm Calm -- 30.20 in1022.7 mb 0.00 in0.0 mm 0.00 in0.0 mm 0.00 in0.0 mm
06:52 AM 51.3°F10.7°C 49.3°F9.6°C 93% Calm Calm 2.9 mph4.7 kmh 30.20 in1022.7 mb 0.00 in0.0 mm 0.00 in0.0 mm 0.00 in0.0 mm
07:02 AM 51.4°F10.8°C 49.5°F9.7°C 93% Calm Calm -- 30.21 in1023.0 mb 0.00 in0.0 mm 0.00 in0.0 mm 0.00 in0.0 mm
07:12 AM 51.3°F10.7°C 49.3°F9.6°C 93% Calm Calm -- 30.21 in1023.0 mb 0.00 in0.0 mm 0.00 in0.0 mm 0.00 in0.0 mm
07:22 AM 51.4°F10.8°C 49.5°F9.7°C 93% Calm Calm -- 30.20 in1022.7 mb 0.00 in0.0 mm 0.00 in0.0 mm 0.00 in0.0 mm
07:33 AM 51.6°F10.9°C 49.6°F9.8°C 93% Calm Calm 2.0 mph3.2 kmh 30.20 in1022.7 mb 0.00 in0.0 mm 0.00 in0.0 mm 0.00 in0.0 mm
07:43 AM 51.8°F11.0°C 49.8°F9.9°C 93% Calm Calm 2.9 mph4.7 kmh 30.21 in1023.0 mb 0.00 in0.0 mm 0.00 in0.0 mm 0.00 in0.0 mm
07:53 AM 52.0°F11.1°C 50.0°F10.0°C 93% Calm Calm 4.0 mph6.4 kmh 30.21 in1023.0 mb 0.00 in0.0 mm 0.00 in0.0 mm 0.00 in0.0 mm
08:03 AM 52.2°F11.2°C 50.2°F10.1°C 93% Calm Calm -- 30.22 in1023.4 mb 0.00 in0.0 mm 0.00 in0.0 mm 0.00 in0.0 mm
08:13 AM 52.5°F11.4°C 50.2°F10.1°C 92% Calm Calm -- 30.22 in1023.4 mb 0.00 in0.0 mm 0.00 in0.0 mm 0.00 in0.0 mm
08:23 AM 52.9°F11.6°C 50.5°F10.3°C 92% Calm Calm -- 30.22 in1023.4 mb 0.00 in0.0 mm 0.00 in0.0 mm 0.00 in0.0 mm
08:33 AM 53.1°F11.7°C 50.7°F10.4°C 92% Calm Calm 0.9 mph1.4 kmh 30.22 in1023.4 mb 0.00 in0.0 mm 0.00 in0.0 mm 0.00 in0.0 mm
08:43 AM 53.4°F11.9°C 51.1°F10.6°C 92% Calm Calm 6.0 mph9.7 kmh 30.22 in1023.4 mb 0.00 in0.0 mm 0.00 in0.0 mm 0.00 in0.0 mm
08:53 AM 53.8°F12.1°C 51.3°F10.7°C 91% Calm Calm 2.9 mph4.7 kmh 30.22 in1023.4 mb 0.00 in0.0 mm 0.00 in0.0 mm 0.00 in0.0 mm
09:03 AM 54.0°F12.2°C 51.4°F10.8°C 91% Calm Calm -- 30.22 in1023.4 mb 0.00 in0.0 mm 0.00 in0.0 mm 0.00 in0.0 mm
09:13 AM 54.1°F12.3°C 51.3°F10.7°C 90% Calm Calm 8.1 mph13.0 kmh 30.22 in1023.4 mb 0.00 in0.0 mm 0.00 in0.0 mm 0.00 in0.0 mm
09:23 AM 54.9°F12.7°C 52.0°F11.1°C 90% 0.9 mph SSW1.4 kmh SSW 8.9 mph14.3 kmh 30.23 in1023.7 mb 0.00 in0.0 mm 0.00 in0.0 mm 0.00 in0.0 mm
09:33 AM 55.4°F13.0°C 52.2°F11.2°C 89% 2.9 mph S4.7 kmh S 11.0 mph17.7 kmh 30.23 in1023.7 mb 0.00 in0.0 mm 0.00 in0.0 mm 0.00 in0.0 mm
09:43 AM 55.8°F13.2°C 52.3°F11.3°C 88% 4.0 mph SW6.4 kmh SW 11.0 mph17.7 kmh 30.23 in1023.7 mb 0.00 in0.0 mm 0.00 in0.0 mm 0.00 in0.0 mm
09:54 AM 55.9°F13.3°C 52.2°F11.2°C 87% 2.9 mph SSE4.7 kmh SSE 8.9 mph14.3 kmh 30.23 in1023.7 mb 0.00 in0.0 mm 0.00 in0.0 mm 0.00 in0.0 mm
10:04 AM 56.8°F13.8°C 52.7°F11.5°C 86% 4.9 mph S7.9 kmh S 10.1 mph16.3 kmh 30.23 in1023.7 mb 0.00 in0.0 mm 0.00 in0.0 mm 0.00 in0.0 mm
10:14 AM 57.7°F14.3°C 53.2°F11.8°C 85% 4.9 mph SSW7.9 kmh SSW 13.0 mph20.9 kmh 30.23 in1023.7 mb 0.00 in0.0 mm 0.00 in0.0 mm 0.00 in0.0 mm
10:24 AM 57.7°F14.3°C 52.7°F11.5°C 83% 6.0 mph SW9.7 kmh SW 17.9 mph28.8 kmh 30.23 in1023.7 mb 0.00 in0.0 mm 0.00 in0.0 mm 0.00 in0.0 mm
10:34 AM 58.3°F14.6°C 52.9°F11.6°C 82% 4.9 mph S7.9 kmh S 12.1 mph19.5 kmh 30.23 in1023.7 mb 0.00 in0.0 mm 0.00 in0.0 mm 0.00 in0.0 mm
10:44 AM 58.5°F14.7°C 52.7°F11.5°C 81% 6.0 mph SW9.7 kmh SW 13.0 mph20.9 kmh 30.23 in1023.7 mb 0.00 in0.0 mm 0.00 in0.0 mm 0.00 in0.0 mm
10:54 AM 58.5°F14.7°C 52.7°F11.5°C 81% 4.0 mph SW6.4 kmh SW 8.9 mph14.3 kmh 30.24 in1024.0 mb 0.00 in0.0 mm 0.00 in0.0 mm 0.00 in0.0 mm
11:04 AM 59.2°F15.1°C 53.1°F11.7°C 80% 4.9 mph SE7.9 kmh SE 15.0 mph24.1 kmh 30.24 in1024.0 mb 0.00 in0.0 mm 0.00 in0.0 mm 0.00 in0.0 mm
11:14 AM 59.0°F15.0°C 52.5°F11.4°C 79% 6.9 mph S11.1 kmh S 15.0 mph24.1 kmh 30.24 in1024.0 mb 0.00 in0.0 mm 0.00 in0.0 mm 0.00 in0.0 mm
11:24 AM 58.8°F14.9°C 52.3°F11.3°C 79% 8.1 mph SW13.0 kmh SW 17.9 mph28.8 kmh 30.24 in1024.0 mb 0.00 in0.0 mm 0.00 in0.0 mm 0.00 in0.0 mm
11:34 AM 58.6°F14.8°C 52.5°F11.4°C 80% 6.9 mph WSW11.1 kmh WSW 17.9 mph28.8 kmh 30.24 in1024.0 mb 0.00 in0.0 mm 0.00 in0.0 mm 0.00 in0.0 mm
11:44 AM 58.6°F14.8°C 52.5°F11.4°C 80% 6.9 mph SW11.1 kmh SW 16.1 mph25.9 kmh 30.24 in1024.0 mb 0.00 in0.0 mm 0.00 in0.0 mm 0.00 in0.0 mm
11:54 AM 58.5°F14.7°C 52.7°F11.5°C 81% 8.9 mph SW14.3 kmh SW 21.0 mph33.8 kmh 30.24 in1024.0 mb 0.00 in0.0 mm 0.00 in0.0 mm 0.00 in0.0 mm
12:04 PM 58.5°F14.7°C 52.7°F11.5°C 81% 8.1 mph WSW13.0 kmh WSW 16.1 mph25.9 kmh 30.24 in1024.0 mb 0.00 in0.0 mm 0.00 in0.0 mm 0.00 in0.0 mm
12:14 PM 58.5°F14.7°C 53.2°F11.8°C 83% 4.9 mph S7.9 kmh S 16.1 mph25.9 kmh 30.24 in1024.0 mb 0.00 in0.0 mm 0.00 in0.0 mm 0.00 in0.0 mm
12:24 PM 58.5°F14.7°C 53.2°F11.8°C 83% 4.9 mph SSW7.9 kmh SSW 13.0 mph20.9 kmh 30.24 in1024.0 mb 0.00 in0.0 mm 0.00 in0.0 mm 0.00 in0.0 mm
12:34 PM 58.1°F14.5°C 53.6°F12.0°C 85% 4.0 mph SSW6.4 kmh SSW 13.0 mph20.9 kmh 30.24 in1024.0 mb 0.00 in0.0 mm 0.00 in0.0 mm 0.00 in0.0 mm
12:44 PM 57.7°F14.3°C 54.0°F12.2°C 87% 2.9 mph E4.7 kmh E 10.1 mph16.3 kmh 30.24 in1024.0 mb 0.00 in0.0 mm 0.00 in0.0 mm 0.00 in0.0 mm
12:54 PM 57.9°F14.4°C 54.1°F12.3°C 87% 2.9 mph SW4.7 kmh SW 8.9 mph14.3 kmh 30.23 in1023.7 mb 0.00 in0.0 mm 0.00 in0.0 mm 0.00 in0.0 mm
01:04 PM 58.5°F14.7°C 54.7°F12.6°C 87% 4.0 mph SSE6.4 kmh SSE 11.0 mph17.7 kmh 30.23 in1023.7 mb 0.00 in0.0 mm 0.00 in0.0 mm 0.00 in0.0 mm
01:14 PM 58.5°F14.7°C 54.3°F12.4°C 86% 4.9 mph SW7.9 kmh SW 13.0 mph20.9 kmh 30.24 in1024.0 mb 0.00 in0.0 mm 0.00 in0.0 mm 0.00 in0.0 mm
01:24 PM 58.6°F14.8°C 54.5°F12.5°C 86% 4.0 mph SW6.4 kmh SW 8.9 mph14.3 kmh 30.23 in1023.7 mb 0.00 in0.0 mm 0.00 in0.0 mm 0.00 in0.0 mm
01:34 PM 58.6°F14.8°C 54.1°F12.3°C 85% 4.0 mph SSW6.4 kmh SSW 13.0 mph20.9 kmh 30.23 in1023.7 mb 0.00 in0.0 mm 0.00 in0.0 mm 0.00 in0.0 mm
01:44 PM 58.6°F14.8°C 54.1°F12.3°C 85% 4.0 mph SW6.4 kmh SW 13.0 mph20.9 kmh 30.23 in1023.7 mb 0.00 in0.0 mm 0.00 in0.0 mm 0.00 in0.0 mm
01:54 PM 58.8°F14.9°C 53.6°F12.0°C 83% 6.9 mph SW11.1 kmh SW 14.1 mph22.7 kmh 30.23 in1023.7 mb 0.00 in0.0 mm 0.00 in0.0 mm 0.00 in0.0 mm
02:04 PM 59.5°F15.3°C 53.8°F12.1°C 81% 8.9 mph SW14.3 kmh SW 17.9 mph28.8 kmh 30.22 in1023.4 mb 0.00 in0.0 mm 0.00 in0.0 mm 0.00 in0.0 mm
02:14 PM 59.5°F15.3°C 54.0°F12.2°C 82% 8.9 mph SW14.3 kmh SW 17.9 mph28.8 kmh 30.22 in1023.4 mb 0.00 in0.0 mm 0.00 in0.0 mm 0.00 in0.0 mm
02:24 PM 59.2°F15.1°C 53.6°F12.0°C 82% 8.1 mph SSE13.0 kmh SSE 17.9 mph28.8 kmh 30.22 in1023.4 mb 0.00 in0.0 mm 0.00 in0.0 mm 0.00 in0.0 mm
02:34 PM 59.4°F15.2°C 53.8°F12.1°C 82% 8.9 mph S14.3 kmh S 17.9 mph28.8 kmh 30.22 in1023.4 mb 0.00 in0.0 mm 0.00 in0.0 mm 0.00 in0.0 mm
02:44 PM 59.5°F15.3°C 53.8°F12.1°C 81% 8.9 mph WSW14.3 kmh WSW 19.9 mph32.0 kmh 30.22 in1023.4 mb 0.00 in0.0 mm 0.00 in0.0 mm 0.00 in0.0 mm
02:54 PM 59.4°F15.2°C 53.2°F11.8°C 80% 10.1 mph S16.3 kmh S 17.9 mph28.8 kmh 30.22 in1023.4 mb 0.00 in0.0 mm 0.00 in0.0 mm 0.00 in0.0 mm
03:04 PM 59.4°F15.2°C 53.2°F11.8°C 80% 8.1 mph SW13.0 kmh SW 19.0 mph30.6 kmh 30.22 in1023.4 mb 0.00 in0.0 mm 0.00 in0.0 mm 0.00 in0.0 mm
03:14 PM 59.4°F15.2°C 53.6°F12.0°C 81% 11.0 mph WSW17.7 kmh WSW 21.9 mph35.2 kmh 30.22 in1023.4 mb 0.00 in0.0 mm 0.00 in0.0 mm 0.00 in0.0 mm
03:24 PM 59.0°F15.0°C 53.6°F12.0°C 82% 10.1 mph SW16.3 kmh SW 21.0 mph33.8 kmh 30.22 in1023.4 mb 0.00 in0.0 mm 0.00 in0.0 mm 0.00 in0.0 mm
03:34 PM 58.6°F14.8°C 53.4°F11.9°C 83% 8.9 mph SW14.3 kmh SW 19.0 mph30.6 kmh 30.22 in1023.4 mb 0.00 in0.0 mm 0.00 in0.0 mm 0.00 in0.0 mm
03:44 PM 59.0°F15.0°C 53.6°F12.0°C 82% 8.9 mph SW14.3 kmh SW 17.9 mph28.8 kmh 30.22 in1023.4 mb 0.00 in0.0 mm 0.00 in0.0 mm 0.00 in0.0 mm
03:54 PM 59.2°F15.1°C 53.6°F12.0°C 82% 6.0 mph SSE9.7 kmh SSE 13.0 mph20.9 kmh 30.22 in1023.4 mb 0.00 in0.0 mm 0.00 in0.0 mm 0.00 in0.0 mm
04:04 PM 58.8°F14.9°C 53.4°F11.9°C 82% 8.1 mph SW13.0 kmh SW 19.0 mph30.6 kmh 30.22 in1023.4 mb 0.00 in0.0 mm 0.00 in0.0 mm 0.00 in0.0 mm
04:14 PM 58.6°F14.8°C 53.4°F11.9°C 83% 4.9 mph SW7.9 kmh SW 14.1 mph22.7 kmh 30.22 in1023.4 mb 0.00 in0.0 mm 0.00 in0.0 mm 0.00 in0.0 mm
04:24 PM 58.6°F14.8°C 53.4°F11.9°C 83% 6.0 mph E9.7 kmh E 12.1 mph19.5 kmh 30.23 in1023.7 mb 0.00 in0.0 mm 0.00 in0.0 mm 0.00 in0.0 mm
04:34 PM 58.3°F14.6°C 53.8°F12.1°C 85% 4.9 mph SW7.9 kmh SW 13.0 mph20.9 kmh 30.23 in1023.7 mb 0.00 in0.0 mm 0.00 in0.0 mm 0.00 in0.0 mm
04:44 PM 57.4°F14.1°C 53.6°F12.0°C 87% 0.9 mph SW1.4 kmh SW 10.1 mph16.3 kmh 30.23 in1023.7 mb 0.00 in0.0 mm 0.00 in0.0 mm 0.00 in0.0 mm
04:54 PM 57.0°F13.9°C 53.8°F12.1°C 89% 0.9 mph S1.4 kmh S 8.9 mph14.3 kmh 30.23 in1023.7 mb 0.00 in0.0 mm 0.00 in0.0 mm 0.00 in0.0 mm
05:04 PM 56.7°F13.7°C 53.8°F12.1°C 90% 0.9 mph S1.4 kmh S 8.9 mph14.3 kmh 30.23 in1023.7 mb 0.00 in0.0 mm 0.00 in0.0 mm 0.00 in0.0 mm
05:14 PM 56.5°F13.6°C 53.6°F12.0°C 90% 0.9 mph SE1.4 kmh SE 8.1 mph13.0 kmh 30.23 in1023.7 mb 0.00 in0.0 mm 0.00 in0.0 mm 0.00 in0.0 mm
05:24 PM 56.5°F13.6°C 54.0°F12.2°C 91% Calm Calm -- 30.24 in1024.0 mb 0.00 in0.0 mm 0.00 in0.0 mm 0.00 in0.0 mm
05:34 PM 56.1°F13.4°C 53.6°F12.0°C 91% Calm Calm -- 30.24 in1024.0 mb 0.00 in0.0 mm 0.00 in0.0 mm 0.00 in0.0 mm
05:44 PM 55.9°F13.3°C 53.6°F12.0°C 92% Calm Calm -- 30.24 in1024.0 mb 0.01 in0.3 mm 0.06 in1.5 mm 0.01 in0.3 mm
05:54 PM 55.8°F13.2°C 53.4°F11.9°C 92% Calm Calm -- 30.24 in1024.0 mb 0.01 in0.3 mm 0.00 in0.0 mm 0.01 in0.3 mm
06:05 PM 55.6°F13.1°C 53.2°F11.8°C 92% Calm Calm -- 30.24 in1024.0 mb 0.02 in0.5 mm 0.01 in0.3 mm 0.02 in0.5 mm
06:15 PM 55.6°F13.1°C 53.2°F11.8°C 92% Calm Calm -- 30.24 in1024.0 mb 0.02 in0.5 mm 0.00 in0.0 mm 0.02 in0.5 mm
06:25 PM 55.2°F12.9°C 52.9°F11.6°C 92% Calm Calm -- 30.24 in1024.0 mb 0.02 in0.5 mm 0.00 in0.0 mm 0.02 in0.5 mm
06:35 PM 55.2°F12.9°C 53.2°F11.8°C 93% Calm Calm 4.0 mph6.4 kmh 30.24 in1024.0 mb 0.02 in0.5 mm 0.00 in0.0 mm 0.02 in0.5 mm
06:45 PM 55.0°F12.8°C 53.1°F11.7°C 93% Calm Calm -- 30.25 in1024.4 mb 0.02 in0.5 mm 0.00 in0.0 mm 0.02 in0.5 mm
06:55 PM 55.0°F12.8°C 53.1°F11.7°C 93% Calm Calm -- 30.25 in1024.4 mb 0.02 in0.5 mm 0.00 in0.0 mm 0.02 in0.5 mm
07:05 PM 54.9°F12.7°C 52.9°F11.6°C 93% Calm Calm -- 30.25 in1024.4 mb 0.01 in0.3 mm 0.00 in0.0 mm 0.02 in0.5 mm
07:16 PM 54.9°F12.7°C 52.9°F11.6°C 93% Calm Calm 0.9 mph1.4 kmh 30.25 in1024.4 mb 0.01 in0.3 mm 0.00 in0.0 mm 0.02 in0.5 mm
07:26 PM 54.9°F12.7°C 52.9°F11.6°C 93% Calm Calm -- 30.25 in1024.4 mb 0.01 in0.3 mm 0.00 in0.0 mm 0.02 in0.5 mm
07:36 PM 54.9°F12.7°C 52.9°F11.6°C 93% Calm Calm -- 30.25 in1024.4 mb 0.01 in0.3 mm 0.00 in0.0 mm 0.02 in0.5 mm
07:46 PM 54.7°F12.6°C 52.7°F11.5°C 93% Calm Calm -- 30.26 in1024.7 mb 0.00 in0.0 mm 0.00 in0.0 mm 0.02 in0.5 mm
07:56 PM 54.7°F12.6°C 52.7°F11.5°C 93% 0.9 mph S1.4 kmh S 4.0 mph6.4 kmh 30.26 in1024.7 mb 0.00 in0.0 mm 0.00 in0.0 mm 0.02 in0.5 mm
08:06 PM 54.7°F12.6°C 53.1°F11.7°C 94% Calm Calm -- 30.26 in1024.7 mb 0.01 in0.3 mm 0.01 in0.3 mm 0.03 in0.8 mm
08:16 PM 54.5°F12.5°C 52.9°F11.6°C 94% Calm Calm -- 30.26 in1024.7 mb 0.01 in0.3 mm 0.00 in0.0 mm 0.03 in0.8 mm
08:26 PM 54.5°F12.5°C 52.9°F11.6°C 94% Calm Calm 2.9 mph4.7 kmh 30.26 in1024.7 mb 0.01 in0.3 mm 0.00 in0.0 mm 0.03 in0.8 mm
08:36 PM 54.5°F12.5°C 52.9°F11.6°C 94% Calm Calm 4.0 mph6.4 kmh 30.26 in1024.7 mb 0.01 in0.3 mm 0.00 in0.0 mm 0.03 in0.8 mm
08:46 PM 54.3°F12.4°C 52.7°F11.5°C 94% Calm Calm -- 30.26 in1024.7 mb 0.01 in0.3 mm 0.00 in0.0 mm 0.03 in0.8 mm
08:56 PM 54.3°F12.4°C 52.7°F11.5°C 94% Calm Calm 2.0 mph3.2 kmh 30.26 in1024.7 mb 0.01 in0.3 mm 0.00 in0.0 mm 0.03 in0.8 mm
09:06 PM 54.3°F12.4°C 52.7°F11.5°C 94% Calm Calm 4.0 mph6.4 kmh 30.27 in1025.1 mb 0.00 in0.0 mm 0.00 in0.0 mm 0.03 in0.8 mm
09:16 PM 54.3°F12.4°C 52.7°F11.5°C 94% Calm Calm -- 30.27 in1025.1 mb 0.01 in0.3 mm 0.06 in1.5 mm 0.04 in1.0 mm
09:26 PM 54.3°F12.4°C 52.7°F11.5°C 94% Calm Calm -- 30.27 in1025.1 mb 0.01 in0.3 mm 0.00 in0.0 mm 0.04 in1.0 mm
09:36 PM 54.3°F12.4°C 52.7°F11.5°C 94% Calm Calm 6.0 mph9.7 kmh 30.27 in1025.1 mb 0.01 in0.3 mm 0.00 in0.0 mm 0.04 in1.0 mm
09:47 PM 54.3°F12.4°C 52.7°F11.5°C 94% Calm Calm 2.0 mph3.2 kmh 30.27 in1025.1 mb 0.01 in0.3 mm 0.00 in0.0 mm 0.04 in1.0 mm
09:57 PM 54.3°F12.4°C 52.7°F11.5°C 94% Calm Calm 4.0 mph6.4 kmh 30.27 in1025.1 mb 0.01 in0.3 mm 0.00 in0.0 mm 0.04 in1.0 mm
10:07 PM 54.5°F12.5°C 52.9°F11.6°C 94% Calm Calm 2.9 mph4.7 kmh 30.27 in1025.1 mb 0.01 in0.3 mm 0.00 in0.0 mm 0.04 in1.0 mm
10:17 PM 54.5°F12.5°C 52.9°F11.6°C 94% Calm Calm 2.9 mph4.7 kmh 30.27 in1025.1 mb 0.00 in0.0 mm 0.00 in0.0 mm 0.04 in1.0 mm
10:27 PM 54.7°F12.6°C 53.1°F11.7°C 94% Calm Calm 0.9 mph1.4 kmh 30.28 in1025.4 mb 0.00 in0.0 mm 0.00 in0.0 mm 0.04 in1.0 mm
10:37 PM 54.7°F12.6°C 53.1°F11.7°C 94% Calm Calm -- 30.27 in1025.1 mb 0.00 in0.0 mm 0.00 in0.0 mm 0.04 in1.0 mm
10:47 PM 54.7°F12.6°C 53.1°F11.7°C 94% Calm Calm -- 30.27 in1025.1 mb 0.00 in0.0 mm 0.00 in0.0 mm 0.04 in1.0 mm
10:57 PM 54.7°F12.6°C 53.1°F11.7°C 94% Calm Calm -- 30.28 in1025.4 mb 0.01 in0.3 mm 0.06 in1.5 mm 0.05 in1.3 mm
11:07 PM 54.7°F12.6°C 53.1°F11.7°C 94% Calm Calm -- 30.28 in1025.4 mb 0.01 in0.3 mm 0.00 in0.0 mm 0.05 in1.3 mm
11:18 PM 54.9°F12.7°C 53.2°F11.8°C 94% Calm Calm -- 30.28 in1025.4 mb 0.01 in0.3 mm 0.00 in0.0 mm 0.05 in1.3 mm
11:28 PM 54.9°F12.7°C 53.2°F11.8°C 94% Calm Calm 4.9 mph7.9 kmh 30.28 in1025.4 mb 0.01 in0.3 mm 0.00 in0.0 mm 0.05 in1.3 mm
11:38 PM 54.9°F12.7°C 53.2°F11.8°C 94% Calm Calm 2.9 mph4.7 kmh 30.28 in1025.4 mb 0.01 in0.3 mm 0.00 in0.0 mm 0.05 in1.3 mm
11:48 PM 54.9°F12.7°C 53.2°F11.8°C 94% Calm Calm 2.9 mph4.7 kmh 30.28 in1025.4 mb 0.01 in0.3 mm 0.00 in0.0 mm 0.05 in1.3 mm
11:58 PM 54.9°F12.7°C 53.2°F11.8°C 94% Calm Calm 2.9 mph4.7 kmh 30.28 in1025.4 mb 0.00 in0.0 mm 0.00 in0.0 mm 0.05 in1.3 mm